Philadelphia, Pennsylvania
Current Conditions -  °F | °C
As of 12:54 PM on Friday 31 Oct 2014 (Local Time) from KPHL Reporting Station
Broken Clouds Broken Clouds  
Wind Chill: 51°   Ceiling: 4100
Heat Index: 51°   Visibility: 10mi
Dew Point: 36°   Wind: 9mph
Humidity: 56%   Direction: 10°N
Pressure: 29.95"   Gusts: NA
Location:  39.95°N, 75.16°W
Report Text: KPHL 311654Z 01008KT 10SM BKN041 BKN250 11/02 A2995 RMK AO2 SLP141 T01060022
Loading
Personal Weather Stations






























Interactive Weather Map
Tropical Storm Tracking
New forecast layout! Learn more

10-Day Weather Forecast

Advertisements
Track Severe Weather on mobile